sensor_id;sensor_type;location;lat;lon;timestamp;pressure;altitude;pressure_sealevel;temperature;humidity
75045;BME280;63614;56.026;35.960;2024-03-17T00:02:22;99345.00;;;1.01;77.61
75045;BME280;63614;56.026;35.960;2024-03-17T00:04:48;99344.44;;;0.97;78.41
75045;BME280;63614;56.026;35.960;2024-03-17T00:07:14;99342.13;;;0.94;78.05
75045;BME280;63614;56.026;35.960;2024-03-17T00:09:41;99333.88;;;0.90;78.32
75045;BME280;63614;56.026;35.960;2024-03-17T00:12:07;99335.34;;;0.83;78.58
75045;BME280;63614;56.026;35.960;2024-03-17T00:14:34;99335.59;;;0.80;78.91
75045;BME280;63614;56.026;35.960;2024-03-17T00:17:04;99336.34;;;0.71;79.26
75045;BME280;63614;56.026;35.960;2024-03-17T00:19:30;99328.66;;;0.71;79.35
75045;BME280;63614;56.026;35.960;2024-03-17T00:21:56;99327.47;;;0.75;79.16
75045;BME280;63614;56.026;35.960;2024-03-17T00:24:21;99331.34;;;0.69;79.16
75045;BME280;63614;56.026;35.960;2024-03-17T00:26:47;99329.47;;;0.71;78.99
75045;BME280;63614;56.026;35.960;2024-03-17T00:29:15;99331.72;;;0.65;79.20
75045;BME280;63614;56.026;35.960;2024-03-17T00:31:41;99328.03;;;0.58;79.22
75045;BME280;63614;56.026;35.960;2024-03-17T00:34:08;99324.91;;;0.54;78.98
75045;BME280;63614;56.026;35.960;2024-03-17T00:36:35;99320.16;;;0.49;78.91
75045;BME280;63614;56.026;35.960;2024-03-17T00:39:00;99326.34;;;0.47;79.44
75045;BME280;63614;56.026;35.960;2024-03-17T00:41:27;99325.28;;;0.49;79.63
75045;BME280;63614;56.026;35.960;2024-03-17T00:43:52;99310.88;;;0.48;79.17
75045;BME280;63614;56.026;35.960;2024-03-17T00:46:20;99319.84;;;0.43;79.10
75045;BME280;63614;56.026;35.960;2024-03-17T00:48:48;99314.53;;;0.34;79.36
75045;BME280;63614;56.026;35.960;2024-03-17T00:51:14;99310.69;;;0.40;79.04
75045;BME280;63614;56.026;35.960;2024-03-17T00:53:40;99312.34;;;0.30;79.46
75045;BME280;63614;56.026;35.960;2024-03-17T00:56:06;99305.16;;;0.24;79.73
75045;BME280;63614;56.026;35.960;2024-03-17T00:58:32;99317.28;;;0.22;79.90
75045;BME280;63614;56.026;35.960;2024-03-17T01:00:57;99309.41;;;0.13;80.20
75045;BME280;63614;56.026;35.960;2024-03-17T01:03:23;99306.28;;;0.10;80.05
75045;BME280;63614;56.026;35.960;2024-03-17T01:05:50;99310.31;;;0.12;80.00
75045;BME280;63614;56.026;35.960;2024-03-17T01:08:19;99300.94;;;0.13;80.11
75045;BME280;63614;56.026;35.960;2024-03-17T01:10:46;99300.66;;;0.16;80.21
75045;BME280;63614;56.026;35.960;2024-03-17T01:13:17;99298.50;;;0.11;80.63
75045;BME280;63614;56.026;35.960;2024-03-17T01:15:43;99290.94;;;0.10;80.82
75045;BME280;63614;56.026;35.960;2024-03-17T01:18:09;99299.22;;;0.02;80.72
75045;BME280;63614;56.026;35.960;2024-03-17T01:20:36;99293.16;;;0.03;80.92
75045;BME280;63614;56.026;35.960;2024-03-17T01:23:03;99298.03;;;0.06;80.86
75045;BME280;63614;56.026;35.960;2024-03-17T01:25:29;99293.28;;;0.02;80.83
75045;BME280;63614;56.026;35.960;2024-03-17T01:27:56;99288.91;;;-0.08;81.15
75045;BME280;63614;56.026;35.960;2024-03-17T01:30:22;99297.69;;;-0.01;81.97
75045;BME280;63614;56.026;35.960;2024-03-17T01:32:50;99288.16;;;0.02;81.43
75045;BME280;63614;56.026;35.960;2024-03-17T01:35:16;99286.69;;;-0.01;81.54
75045;BME280;63614;56.026;35.960;2024-03-17T01:37:42;99291.19;;;0.07;81.55
75045;BME280;63614;56.026;35.960;2024-03-17T01:40:08;99283.03;;;0.02;82.39
75045;BME280;63614;56.026;35.960;2024-03-17T01:42:37;99280.63;;;0.00;82.11
75045;BME280;63614;56.026;35.960;2024-03-17T01:47:44;99291.91;;;-0.03;82.68
75045;BME280;63614;56.026;35.960;2024-03-17T01:50:11;99287.66;;;0.08;82.81
75045;BME280;63614;56.026;35.960;2024-03-17T01:52:39;99281.34;;;0.23;82.29
75045;BME280;63614;56.026;35.960;2024-03-17T01:55:05;99290.84;;;0.32;82.27
75045;BME280;63614;56.026;35.960;2024-03-17T01:57:32;99284.63;;;0.35;81.50
75045;BME280;63614;56.026;35.960;2024-03-17T01:59:59;99283.28;;;0.52;81.17
75045;BME280;63614;56.026;35.960;2024-03-17T02:02:25;99282.91;;;0.57;80.57
75045;BME280;63614;56.026;35.960;2024-03-17T02:04:51;99278.63;;;0.67;80.52
75045;BME280;63614;56.026;35.960;2024-03-17T02:07:18;99271.53;;;0.70;80.10
75045;BME280;63614;56.026;35.960;2024-03-17T02:09:44;99268.72;;;0.74;80.23
75045;BME280;63614;56.026;35.960;2024-03-17T02:12:10;99268.50;;;0.86;79.82
75045;BME280;63614;56.026;35.960;2024-03-17T02:14:37;99260.13;;;0.84;79.90
75045;BME280;63614;56.026;35.960;2024-03-17T02:17:04;99263.78;;;0.82;80.50
75045;BME280;63614;56.026;35.960;2024-03-17T02:19:30;99265.00;;;0.87;80.61
75045;BME280;63614;56.026;35.960;2024-03-17T02:21:56;99267.34;;;1.00;80.17
75045;BME280;63614;56.026;35.960;2024-03-17T02:24:22;99270.03;;;0.99;80.52
75045;BME280;63614;56.026;35.960;2024-03-17T02:26:48;99268.03;;;1.02;79.94
75045;BME280;63614;56.026;35.960;2024-03-17T02:29:14;99267.91;;;1.04;80.36
75045;BME280;63614;56.026;35.960;2024-03-17T02:31:40;99272.22;;;1.03;80.25
75045;BME280;63614;56.026;35.960;2024-03-17T02:34:05;99265.59;;;1.01;80.41
75045;BME280;63614;56.026;35.960;2024-03-17T02:36:31;99261.41;;;1.00;80.61
75045;BME280;63614;56.026;35.960;2024-03-17T02:38:57;99263.72;;;1.03;80.43
75045;BME280;63614;56.026;35.960;2024-03-17T02:41:43;99263.88;;;1.11;80.10
75045;BME280;63614;56.026;35.960;2024-03-17T02:44:08;99255.13;;;1.14;80.03
75045;BME280;63614;56.026;35.960;2024-03-17T02:46:34;99258.41;;;1.25;79.64
75045;BME280;63614;56.026;35.960;2024-03-17T02:49:00;99251.66;;;1.24;79.63
75045;BME280;63614;56.026;35.960;2024-03-17T02:51:26;99255.44;;;1.20;79.33
75045;BME280;63614;56.026;35.960;2024-03-17T02:53:52;99255.16;;;1.23;79.56
75045;BME280;63614;56.026;35.960;2024-03-17T02:56:18;99256.78;;;1.24;79.37
75045;BME280;63614;56.026;35.960;2024-03-17T02:58:45;99262.63;;;1.36;79.24
75045;BME280;63614;56.026;35.960;2024-03-17T03:01:17;99255.06;;;1.44;79.26
75045;BME280;63614;56.026;35.960;2024-03-17T03:03:43;99245.63;;;1.45;79.04
75045;BME280;63614;56.026;35.960;2024-03-17T03:06:10;99244.28;;;1.51;78.43
75045;BME280;63614;56.026;35.960;2024-03-17T03:08:41;99254.56;;;1.60;78.25
75045;BME280;63614;56.026;35.960;2024-03-17T03:11:09;99247.53;;;1.53;78.43
75045;BME280;63614;56.026;35.960;2024-03-17T03:13:38;99240.81;;;1.52;78.27
75045;BME280;63614;56.026;35.960;2024-03-17T03:16:12;99247.66;;;1.61;78.18
75045;BME280;63614;56.026;35.960;2024-03-17T03:18:40;99239.06;;;1.62;78.13
75045;BME280;63614;56.026;35.960;2024-03-17T03:21:06;99238.91;;;1.63;78.32
75045;BME280;63614;56.026;35.960;2024-03-17T03:23:33;99234.56;;;1.44;78.99
75045;BME280;63614;56.026;35.960;2024-03-17T03:26:00;99235.50;;;1.34;79.34
75045;BME280;63614;56.026;35.960;2024-03-17T03:28:30;99242.00;;;1.48;79.21
75045;BME280;63614;56.026;35.960;2024-03-17T03:30:56;99238.75;;;1.45;79.14
75045;BME280;63614;56.026;35.960;2024-03-17T03:33:22;99236.06;;;1.47;79.48
75045;BME280;63614;56.026;35.960;2024-03-17T03:35:48;99227.56;;;1.56;79.11
75045;BME280;63614;56.026;35.960;2024-03-17T03:38:14;99222.59;;;1.55;79.01
75045;BME280;63614;56.026;35.960;2024-03-17T03:40:41;99228.00;;;1.61;78.67
75045;BME280;63614;56.026;35.960;2024-03-17T03:43:08;99220.31;;;1.61;78.45
75045;BME280;63614;56.026;35.960;2024-03-17T03:45:35;99226.75;;;1.66;78.67
75045;BME280;63614;56.026;35.960;2024-03-17T03:48:01;99224.59;;;1.61;78.73
75045;BME280;63614;56.026;35.960;2024-03-17T03:50:28;99217.59;;;1.63;78.90
75045;BME280;63614;56.026;35.960;2024-03-17T03:52:54;99223.78;;;1.60;78.65
75045;BME280;63614;56.026;35.960;2024-03-17T03:55:20;99217.75;;;1.61;78.64
75045;BME280;63614;56.026;35.960;2024-03-17T03:57:46;99211.91;;;1.59;78.75
75045;BME280;63614;56.026;35.960;2024-03-17T04:00:14;99209.78;;;1.65;78.40
75045;BME280;63614;56.026;35.960;2024-03-17T04:02:42;99205.84;;;1.80;78.18
75045;BME280;63614;56.026;35.960;2024-03-17T04:05:08;99201.94;;;1.76;77.96
75045;BME280;63614;56.026;35.960;2024-03-17T04:07:35;99197.34;;;1.79;77.86
75045;BME280;63614;56.026;35.960;2024-03-17T04:10:04;99203.97;;;1.92;77.52
75045;BME280;63614;56.026;35.960;2024-03-17T04:12:30;99202.22;;;1.92;77.66
75045;BME280;63614;56.026;35.960;2024-03-17T04:14:59;99195.31;;;1.93;77.43
75045;BME280;63614;56.026;35.960;2024-03-17T04:17:25;99197.47;;;1.97;77.33
75045;BME280;63614;56.026;35.960;2024-03-17T04:19:54;99193.56;;;1.93;77.74
75045;BME280;63614;56.026;35.960;2024-03-17T04:22:20;99196.53;;;1.98;77.51
75045;BME280;63614;56.026;35.960;2024-03-17T04:24:48;99194.25;;;1.95;77.40
75045;BME280;63614;56.026;35.960;2024-03-17T04:27:25;99188.03;;;1.98;77.70
75045;BME280;63614;56.026;35.960;2024-03-17T04:29:53;99191.41;;;1.98;77.74
75045;BME280;63614;56.026;35.960;2024-03-17T04:32:20;99184.66;;;1.97;77.97
75045;BME280;63614;56.026;35.960;2024-03-17T04:34:46;99184.22;;;2.12;77.37
75045;BME280;63614;56.026;35.960;2024-03-17T04:37:15;99188.13;;;2.26;77.08
75045;BME280;63614;56.026;35.960;2024-03-17T04:39:45;99185.78;;;2.32;76.75
75045;BME280;63614;56.026;35.960;2024-03-17T04:42:12;99175.25;;;2.35;76.46
75045;BME280;63614;56.026;35.960;2024-03-17T04:44:45;99183.34;;;2.41;76.17
75045;BME280;63614;56.026;35.960;2024-03-17T04:47:12;99180.59;;;2.52;76.08
75045;BME280;63614;56.026;35.960;2024-03-17T04:49:42;99181.44;;;2.52;75.85
75045;BME280;63614;56.026;35.960;2024-03-17T04:52:11;99176.38;;;2.61;75.77
75045;BME280;63614;56.026;35.960;2024-03-17T04:54:37;99180.19;;;2.57;75.58
75045;BME280;63614;56.026;35.960;2024-03-17T04:57:03;99170.59;;;2.59;75.72
75045;BME280;63614;56.026;35.960;2024-03-17T04:59:34;99174.19;;;2.66;75.77
75045;BME280;63614;56.026;35.960;2024-03-17T05:02:00;99175.53;;;2.70;75.44
75045;BME280;63614;56.026;35.960;2024-03-17T05:04:26;99170.00;;;2.75;75.24
75045;BME280;63614;56.026;35.960;2024-03-17T05:06:51;99172.38;;;2.86;75.00
75045;BME280;63614;56.026;35.960;2024-03-17T05:09:17;99178.16;;;2.88;74.72
75045;BME280;63614;56.026;35.960;2024-03-17T05:11:43;99174.38;;;2.92;74.67
75045;BME280;63614;56.026;35.960;2024-03-17T05:14:10;99176.19;;;3.00;74.51
75045;BME280;63614;56.026;35.960;2024-03-17T05:16:36;99185.31;;;3.12;73.91
75045;BME280;63614;56.026;35.960;2024-03-17T05:19:02;99177.91;;;3.09;73.86
75045;BME280;63614;56.026;35.960;2024-03-17T05:21:29;99179.31;;;3.21;73.56
75045;BME280;63614;56.026;35.960;2024-03-17T05:24:01;99176.97;;;3.10;73.80
75045;BME280;63614;56.026;35.960;2024-03-17T05:26:27;99171.25;;;3.16;73.64
75045;BME280;63614;56.026;35.960;2024-03-17T05:28:53;99175.47;;;3.07;73.67
75045;BME280;63614;56.026;35.960;2024-03-17T05:31:22;99177.25;;;3.25;73.27
75045;BME280;63614;56.026;35.960;2024-03-17T05:33:48;99167.47;;;3.11;73.52
75045;BME280;63614;56.026;35.960;2024-03-17T05:36:15;99171.69;;;3.12;73.68
75045;BME280;63614;56.026;35.960;2024-03-17T05:38:41;99176.31;;;3.26;73.35
75045;BME280;63614;56.026;35.960;2024-03-17T05:41:08;99175.28;;;3.19;73.67
75045;BME280;63614;56.026;35.960;2024-03-17T05:43:36;99171.84;;;3.28;73.02
75045;BME280;63614;56.026;35.960;2024-03-17T05:46:11;99179.69;;;3.26;72.83
75045;BME280;63614;56.026;35.960;2024-03-17T05:48:38;99177.41;;;3.41;72.96
75045;BME280;63614;56.026;35.960;2024-03-17T05:53:31;99180.22;;;3.48;72.49
75045;BME280;63614;56.026;35.960;2024-03-17T05:56:02;99175.97;;;3.57;72.25
75045;BME280;63614;56.026;35.960;2024-03-17T05:58:28;99177.22;;;3.53;72.17
75045;BME280;63614;56.026;35.960;2024-03-17T06:00:54;99178.81;;;3.72;71.61
75045;BME280;63614;56.026;35.960;2024-03-17T06:03:20;99180.94;;;3.58;71.87
75045;BME280;63614;56.026;35.960;2024-03-17T06:05:48;99176.03;;;3.65;71.97
75045;BME280;63614;56.026;35.960;2024-03-17T06:08:14;99183.94;;;3.72;71.83
75045;BME280;63614;56.026;35.960;2024-03-17T06:10:45;99187.44;;;3.62;72.02
75045;BME280;63614;56.026;35.960;2024-03-17T06:13:13;99180.06;;;3.68;71.71
75045;BME280;63614;56.026;35.960;2024-03-17T06:15:41;99184.56;;;3.66;72.08
75045;BME280;63614;56.026;35.960;2024-03-17T06:18:07;99185.56;;;3.73;71.59
75045;BME280;63614;56.026;35.960;2024-03-17T06:20:39;99185.00;;;3.79;71.24
75045;BME280;63614;56.026;35.960;2024-03-17T06:23:07;99185.19;;;3.86;70.96
75045;BME280;63614;56.026;35.960;2024-03-17T06:25:48;99176.53;;;3.87;70.88
75045;BME280;63614;56.026;35.960;2024-03-17T06:28:16;99178.38;;;3.94;70.74
75045;BME280;63614;56.026;35.960;2024-03-17T06:30:56;99182.28;;;4.07;70.25
75045;BME280;63614;56.026;35.960;2024-03-17T06:33:25;99177.13;;;4.07;69.79
75045;BME280;63614;56.026;35.960;2024-03-17T06:35:52;99165.66;;;4.19;69.61
75045;BME280;63614;56.026;35.960;2024-03-17T06:38:17;99167.22;;;4.38;69.10
75045;BME280;63614;56.026;35.960;2024-03-17T06:40:53;99173.88;;;4.49;68.57
75045;BME280;63614;56.026;35.960;2024-03-17T06:43:19;99175.66;;;4.48;68.29
75045;BME280;63614;56.026;35.960;2024-03-17T06:45:56;99172.66;;;4.35;68.99
75045;BME280;63614;56.026;35.960;2024-03-17T06:48:24;99170.66;;;4.47;68.32
75045;BME280;63614;56.026;35.960;2024-03-17T06:50:50;99163.16;;;4.35;68.99
75045;BME280;63614;56.026;35.960;2024-03-17T06:53:25;99167.69;;;4.42;68.59
75045;BME280;63614;56.026;35.960;2024-03-17T06:55:56;99166.09;;;4.41;68.52
75045;BME280;63614;56.026;35.960;2024-03-17T06:58:23;99161.97;;;4.56;67.75
75045;BME280;63614;56.026;35.960;2024-03-17T07:01:02;99152.56;;;4.73;67.42
75045;BME280;63614;56.026;35.960;2024-03-17T07:03:31;99159.66;;;4.71;67.24
75045;BME280;63614;56.026;35.960;2024-03-17T07:06:02;99157.53;;;4.66;67.32
75045;BME280;63614;56.026;35.960;2024-03-17T07:08:30;99157.88;;;4.71;67.42
75045;BME280;63614;56.026;35.960;2024-03-17T07:10:59;99156.22;;;4.62;67.08
75045;BME280;63614;56.026;35.960;2024-03-17T07:13:34;99147.44;;;4.81;66.65
75045;BME280;63614;56.026;35.960;2024-03-17T07:16:01;99154.53;;;4.87;66.72
75045;BME280;63614;56.026;35.960;2024-03-17T07:18:29;99144.06;;;4.89;66.44
75045;BME280;63614;56.026;35.960;2024-03-17T07:20:59;99146.69;;;5.05;66.03
75045;BME280;63614;56.026;35.960;2024-03-17T07:23:26;99146.06;;;5.12;65.56
75045;BME280;63614;56.026;35.960;2024-03-17T07:25:58;99150.25;;;5.04;65.63
75045;BME280;63614;56.026;35.960;2024-03-17T07:28:25;99147.69;;;5.13;65.40
75045;BME280;63614;56.026;35.960;2024-03-17T07:30:53;99149.28;;;5.14;65.91
75045;BME280;63614;56.026;35.960;2024-03-17T07:33:20;99152.66;;;5.06;65.55
75045;BME280;63614;56.026;35.960;2024-03-17T07:36:04;99154.41;;;4.97;65.78
75045;BME280;63614;56.026;35.960;2024-03-17T07:38:31;99149.88;;;4.99;65.91
75045;BME280;63614;56.026;35.960;2024-03-17T07:40:57;99151.06;;;5.21;65.37
75045;BME280;63614;56.026;35.960;2024-03-17T07:43:25;99144.81;;;5.49;64.80
75045;BME280;63614;56.026;35.960;2024-03-17T07:48:30;99146.53;;;5.07;65.49
75045;BME280;63614;56.026;35.960;2024-03-17T07:50:58;99141.75;;;5.20;65.95
75045;BME280;63614;56.026;35.960;2024-03-17T07:53:24;99143.47;;;5.12;65.89
75045;BME280;63614;56.026;35.960;2024-03-17T07:56:10;99136.31;;;4.81;66.54
75045;BME280;63614;56.026;35.960;2024-03-17T07:58:37;99125.75;;;5.08;66.15
75045;BME280;63614;56.026;35.960;2024-03-17T08:01:07;99136.97;;;4.91;66.67
75045;BME280;63614;56.026;35.960;2024-03-17T08:03:44;99124.38;;;4.80;66.88
75045;BME280;63614;56.026;35.960;2024-03-17T08:06:10;99119.34;;;4.62;67.55
75045;BME280;63614;56.026;35.960;2024-03-17T08:08:37;99117.09;;;4.59;67.83
75045;BME280;63614;56.026;35.960;2024-03-17T08:11:03;99124.38;;;4.71;67.52
75045;BME280;63614;56.026;35.960;2024-03-17T08:13:30;99127.81;;;4.88;66.92
75045;BME280;63614;56.026;35.960;2024-03-17T08:16:07;99118.50;;;5.04;66.32
75045;BME280;63614;56.026;35.960;2024-03-17T08:18:36;99128.69;;;5.38;65.63
75045;BME280;63614;56.026;35.960;2024-03-17T08:21:03;99119.50;;;5.36;65.38
75045;BME280;63614;56.026;35.960;2024-03-17T08:23:30;99120.00;;;5.64;64.44
75045;BME280;63614;56.026;35.960;2024-03-17T08:25:57;99121.75;;;5.47;64.55
75045;BME280;63614;56.026;35.960;2024-03-17T08:28:24;99116.59;;;5.72;64.16
75045;BME280;63614;56.026;35.960;2024-03-17T08:30:57;99119.84;;;5.66;63.94
75045;BME280;63614;56.026;35.960;2024-03-17T08:33:24;99115.31;;;5.68;63.85
75045;BME280;63614;56.026;35.960;2024-03-17T08:35:58;99121.56;;;6.06;63.29
75045;BME280;63614;56.026;35.960;2024-03-17T08:38:25;99112.53;;;6.10;62.64
75045;BME280;63614;56.026;35.960;2024-03-17T08:40:54;99119.34;;;5.78;63.52
75045;BME280;63614;56.026;35.960;2024-03-17T08:43:20;99109.19;;;5.60;64.49
75045;BME280;63614;56.026;35.960;2024-03-17T08:45:58;99110.47;;;5.81;63.44
75045;BME280;63614;56.026;35.960;2024-03-17T08:48:26;99111.56;;;5.95;63.61
75045;BME280;63614;56.026;35.960;2024-03-17T08:50:53;99113.53;;;6.01;63.02
75045;BME280;63614;56.026;35.960;2024-03-17T08:53:20;99113.84;;;5.81;63.68
75045;BME280;63614;56.026;35.960;2024-03-17T08:55:46;99110.63;;;5.63;63.99
75045;BME280;63614;56.026;35.960;2024-03-17T08:58:12;99102.59;;;5.50;64.41
75045;BME280;63614;56.026;35.960;2024-03-17T09:00:38;99103.53;;;5.32;65.35
75045;BME280;63614;56.026;35.960;2024-03-17T09:03:04;99110.31;;;5.25;65.51
75045;BME280;63614;56.026;35.960;2024-03-17T09:05:33;99114.50;;;5.26;65.89
75045;BME280;63614;56.026;35.960;2024-03-17T09:07:59;99120.81;;;5.32;65.35
75045;BME280;63614;56.026;35.960;2024-03-17T09:10:25;99120.81;;;5.32;65.14
75045;BME280;63614;56.026;35.960;2024-03-17T09:12:50;99113.22;;;5.38;65.25
75045;BME280;63614;56.026;35.960;2024-03-17T09:15:16;99107.59;;;5.35;65.20
75045;BME280;63614;56.026;35.960;2024-03-17T09:17:42;99111.94;;;5.67;64.59
75045;BME280;63614;56.026;35.960;2024-03-17T09:20:12;99110.78;;;6.03;62.96
75045;BME280;63614;56.026;35.960;2024-03-17T09:22:38;99104.25;;;6.31;62.08
75045;BME280;63614;56.026;35.960;2024-03-17T09:25:08;99104.88;;;6.42;61.72
75045;BME280;63614;56.026;35.960;2024-03-17T09:27:34;99106.09;;;6.54;61.33
75045;BME280;63614;56.026;35.960;2024-03-17T09:30:04;99106.97;;;6.38;61.11
75045;BME280;63614;56.026;35.960;2024-03-17T09:32:38;99112.22;;;6.13;61.90
75045;BME280;63614;56.026;35.960;2024-03-17T09:35:04;99108.94;;;6.28;61.73
75045;BME280;63614;56.026;35.960;2024-03-17T09:37:31;99112.13;;;6.38;61.16
75045;BME280;63614;56.026;35.960;2024-03-17T09:40:00;99118.16;;;6.22;61.83
75045;BME280;63614;56.026;35.960;2024-03-17T09:42:27;99109.00;;;6.11;61.86
75045;BME280;63614;56.026;35.960;2024-03-17T09:44:56;99112.00;;;6.31;61.75
75045;BME280;63614;56.026;35.960;2024-03-17T09:47:23;99107.28;;;6.35;61.55
75045;BME280;63614;56.026;35.960;2024-03-17T09:49:50;99106.81;;;6.31;61.53
75045;BME280;63614;56.026;35.960;2024-03-17T09:52:22;99107.59;;;6.48;60.91
75045;BME280;63614;56.026;35.960;2024-03-17T09:55:09;99109.22;;;6.49;60.71
75045;BME280;63614;56.026;35.960;2024-03-17T09:57:39;99109.72;;;6.36;61.12
75045;BME280;63614;56.026;35.960;2024-03-17T10:00:14;99110.66;;;6.44;60.78
75045;BME280;63614;56.026;35.960;2024-03-17T10:02:47;99106.69;;;6.25;61.17
75045;BME280;63614;56.026;35.960;2024-03-17T10:05:23;99111.03;;;6.32;61.00
75045;BME280;63614;56.026;35.960;2024-03-17T10:07:50;99111.63;;;6.43;60.70
75045;BME280;63614;56.026;35.960;2024-03-17T10:10:17;99111.59;;;6.51;60.61
75045;BME280;63614;56.026;35.960;2024-03-17T10:12:52;99110.91;;;6.65;60.59
75045;BME280;63614;56.026;35.960;2024-03-17T10:15:18;99111.88;;;6.64;60.13
75045;BME280;63614;56.026;35.960;2024-03-17T10:17:44;99105.41;;;6.60;60.08
75045;BME280;63614;56.026;35.960;2024-03-17T10:22:38;99102.53;;;6.55;60.36
75045;BME280;63614;56.026;35.960;2024-03-17T10:25:04;99104.75;;;6.66;60.41
75045;BME280;63614;56.026;35.960;2024-03-17T10:27:31;99105.38;;;6.68;60.00
75045;BME280;63614;56.026;35.960;2024-03-17T10:29:58;99110.28;;;6.55;60.23
75045;BME280;63614;56.026;35.960;2024-03-17T10:32:24;99106.25;;;6.61;60.37
75045;BME280;63614;56.026;35.960;2024-03-17T10:34:51;99087.38;;;6.52;60.02
75045;BME280;63614;56.026;35.960;2024-03-17T10:37:18;99102.88;;;6.52;60.38
75045;BME280;63614;56.026;35.960;2024-03-17T10:39:53;99098.00;;;6.57;60.14
75045;BME280;63614;56.026;35.960;2024-03-17T10:42:27;99106.16;;;6.77;59.53
75045;BME280;63614;56.026;35.960;2024-03-17T10:44:54;99106.97;;;6.78;59.80
75045;BME280;63614;56.026;35.960;2024-03-17T10:47:26;99092.84;;;6.57;60.14
75045;BME280;63614;56.026;35.960;2024-03-17T10:49:54;99093.34;;;6.52;60.38
75045;BME280;63614;56.026;35.960;2024-03-17T10:52:22;99101.91;;;6.53;60.72
75045;BME280;63614;56.026;35.960;2024-03-17T10:54:53;99103.63;;;6.29;61.13
75045;BME280;63614;56.026;35.960;2024-03-17T11:00:03;99098.94;;;6.25;61.40
75045;BME280;63614;56.026;35.960;2024-03-17T11:02:31;99097.84;;;6.19;61.29
75045;BME280;63614;56.026;35.960;2024-03-17T11:05:03;99105.06;;;6.24;61.68
75045;BME280;63614;56.026;35.960;2024-03-17T11:07:33;99099.28;;;6.22;61.66
75045;BME280;63614;56.026;35.960;2024-03-17T11:10:04;99096.34;;;6.33;61.58
75045;BME280;63614;56.026;35.960;2024-03-17T11:17:55;99099.16;;;6.07;62.29
75045;BME280;63614;56.026;35.960;2024-03-17T11:20:28;99092.19;;;6.15;61.98
75045;BME280;63614;56.026;35.960;2024-03-17T11:22:56;99089.56;;;6.24;61.89
75045;BME280;63614;56.026;35.960;2024-03-17T11:28:08;99084.91;;;6.27;61.87
75045;BME280;63614;56.026;35.960;2024-03-17T11:39:09;99079.78;;;6.19;62.02
75045;BME280;63614;56.026;35.960;2024-03-17T11:42:04;99078.47;;;6.15;62.21
75045;BME280;63614;56.026;35.960;2024-03-17T11:44:36;99085.44;;;6.06;62.73
75045;BME280;63614;56.026;35.960;2024-03-17T11:47:04;99087.66;;;6.26;62.12
75045;BME280;63614;56.026;35.960;2024-03-17T11:51:59;99076.25;;;6.04;62.90
75045;BME280;63614;56.026;35.960;2024-03-17T11:54:31;99082.72;;;5.99;63.29
75045;BME280;63614;56.026;35.960;2024-03-17T11:57:02;99073.38;;;5.98;62.95
75045;BME280;63614;56.026;35.960;2024-03-17T11:59:28;99080.63;;;6.03;62.76
75045;BME280;63614;56.026;35.960;2024-03-17T12:01:55;99077.03;;;6.12;62.67
75045;BME280;63614;56.026;35.960;2024-03-17T12:04:23;99085.44;;;6.14;62.56
75045;BME280;63614;56.026;35.960;2024-03-17T12:06:54;99075.25;;;6.21;62.43
75045;BME280;63614;56.026;35.960;2024-03-17T12:09:21;99074.47;;;6.04;62.76
75045;BME280;63614;56.026;35.960;2024-03-17T12:11:49;99064.47;;;6.01;62.77
75045;BME280;63614;56.026;35.960;2024-03-17T12:14:18;99069.47;;;5.94;63.43
75045;BME280;63614;56.026;35.960;2024-03-17T12:16:56;99070.78;;;5.82;64.11
75045;BME280;63614;56.026;35.960;2024-03-17T12:19:23;99067.53;;;5.96;63.60
75045;BME280;63614;56.026;35.960;2024-03-17T12:21:50;99070.59;;;6.08;63.23
75045;BME280;63614;56.026;35.960;2024-03-17T12:24:17;99064.81;;;5.98;63.44
75045;BME280;63614;56.026;35.960;2024-03-17T12:26:44;99067.38;;;5.98;63.19
75045;BME280;63614;56.026;35.960;2024-03-17T12:29:28;99070.91;;;5.89;63.54
75045;BME280;63614;56.026;35.960;2024-03-17T12:32:00;99070.13;;;5.88;63.66
75045;BME280;63614;56.026;35.960;2024-03-17T12:34:29;99072.06;;;5.86;63.72
75045;BME280;63614;56.026;35.960;2024-03-17T12:36:57;99068.84;;;5.76;63.77
75045;BME280;63614;56.026;35.960;2024-03-17T12:39:25;99072.88;;;5.87;63.71
75045;BME280;63614;56.026;35.960;2024-03-17T12:42:11;99073.03;;;5.85;63.60
75045;BME280;63614;56.026;35.960;2024-03-17T12:44:48;99072.88;;;5.78;63.86
75045;BME280;63614;56.026;35.960;2024-03-17T12:47:23;99077.75;;;5.73;63.85
75045;BME280;63614;56.026;35.960;2024-03-17T12:49:54;99072.25;;;5.76;64.09
75045;BME280;63614;56.026;35.960;2024-03-17T12:52:27;99066.59;;;5.64;64.20
75045;BME280;63614;56.026;35.960;2024-03-17T12:55:17;99073.56;;;5.56;64.44
75045;BME280;63614;56.026;35.960;2024-03-17T13:01:03;99065.66;;;5.66;64.34
75045;BME280;63614;56.026;35.960;2024-03-17T13:03:34;99077.09;;;5.55;64.75
75045;BME280;63614;56.026;35.960;2024-03-17T13:06:02;99066.00;;;5.54;64.93
75045;BME280;63614;56.026;35.960;2024-03-17T13:08:34;99077.91;;;5.47;64.69
75045;BME280;63614;56.026;35.960;2024-03-17T13:11:01;99064.84;;;5.49;65.07
75045;BME280;63614;56.026;35.960;2024-03-17T13:13:30;99061.63;;;5.46;64.76
75045;BME280;63614;56.026;35.960;2024-03-17T13:15:56;99059.06;;;5.46;64.99
75045;BME280;63614;56.026;35.960;2024-03-17T13:18:22;99057.13;;;5.57;64.81
75045;BME280;63614;56.026;35.960;2024-03-17T13:20:48;99049.72;;;5.37;65.16
75045;BME280;63614;56.026;35.960;2024-03-17T13:23:16;99058.75;;;5.33;65.46
75045;BME280;63614;56.026;35.960;2024-03-17T13:25:42;99050.50;;;5.30;65.74
75045;BME280;63614;56.026;35.960;2024-03-17T13:28:09;99046.81;;;5.32;65.66
75045;BME280;63614;56.026;35.960;2024-03-17T13:30:36;99055.53;;;5.39;65.58
75045;BME280;63614;56.026;35.960;2024-03-17T13:33:03;99053.59;;;5.41;65.29
75045;BME280;63614;56.026;35.960;2024-03-17T13:35:35;99048.75;;;5.38;65.37
75045;BME280;63614;56.026;35.960;2024-03-17T13:38:09;99048.75;;;5.38;65.53
75045;BME280;63614;56.026;35.960;2024-03-17T13:40:38;99043.75;;;5.20;66.03
75045;BME280;63614;56.026;35.960;2024-03-17T13:43:04;99051.66;;;5.27;66.06